createdAt,value
2018-12-30T00:03:39.322Z,38.33
2018-12-30T00:08:25.661Z,39.33
2018-12-30T00:13:11.951Z,54.80
2018-12-30T00:17:57.774Z,43.60
2018-12-30T00:22:43.573Z,75.07
2018-12-30T00:27:29.348Z,43.33
2018-12-30T00:32:15.337Z,45.10
2018-12-30T00:37:01.273Z,37.60
2018-12-30T00:41:47.098Z,38.47
2018-12-30T00:46:32.882Z,40.07
2018-12-30T00:51:18.764Z,39.57
2018-12-30T00:56:04.504Z,36.23
2018-12-30T01:00:50.663Z,35.10
2018-12-30T01:05:36.661Z,36.33
2018-12-30T01:10:22.510Z,36.23
2018-12-30T01:15:08.429Z,33.83
2018-12-30T01:19:54.293Z,37.30
2018-12-30T01:24:40.124Z,38.83
2018-12-30T01:29:25.964Z,38.60
2018-12-30T01:34:11.794Z,31.50
2018-12-30T01:38:57.598Z,45.33
2018-12-30T01:43:43.357Z,52.37
2018-12-30T01:48:29.564Z,60.40
2018-12-30T01:53:15.279Z,54.07
2018-12-30T01:58:01.029Z,62.03
2018-12-30T02:02:46.815Z,68.80
2018-12-30T02:07:32.555Z,79.70
2018-12-30T02:12:18.284Z,66.53
2018-12-30T02:17:04.302Z,67.83
2018-12-30T02:21:49.981Z,55.43
2018-12-30T02:26:35.756Z,55.03
2018-12-30T02:31:21.493Z,43.67
2018-12-30T02:36:07.630Z,40.23
2018-12-30T02:40:53.397Z,43.13
2018-12-30T02:45:39.148Z,47.40
2018-12-30T02:50:24.832Z,43.70
2018-12-30T02:55:10.558Z,50.37
2018-12-30T02:59:56.298Z,64.47
2018-12-30T03:04:42.014Z,71.90
2018-12-30T03:09:27.686Z,69.73
2018-12-30T03:14:13.417Z,66.07
2018-12-30T03:18:59.243Z,64.80
2018-12-30T03:23:45.032Z,61.97
2018-12-30T03:28:30.706Z,49.97
2018-12-30T03:33:16.467Z,53.30
2018-12-30T03:38:02.150Z,51.23
2018-12-30T03:42:47.914Z,57.87
2018-12-30T03:47:33.584Z,59.90
2018-12-30T03:52:19.388Z,50.80
2018-12-30T03:57:05.156Z,41.93
2018-12-30T04:01:51.038Z,49.37
2018-12-30T04:06:36.706Z,38.10
2018-12-30T04:11:22.428Z,37.67
2018-12-30T04:16:08.283Z,49.30
2018-12-30T04:20:53.988Z,42.23
2018-12-30T04:25:39.723Z,50.33
2018-12-30T04:30:25.398Z,52.00
2018-12-30T04:35:11.113Z,49.53
2018-12-30T04:39:56.802Z,51.93
2018-12-30T04:44:42.485Z,42.93
2018-12-30T04:49:28.202Z,43.23
2018-12-30T04:54:13.935Z,41.67
2018-12-30T04:58:59.614Z,46.87
2018-12-30T05:03:45.380Z,43.37
2018-12-30T05:08:31.106Z,46.67
2018-12-30T05:13:16.807Z,51.07
2018-12-30T05:18:02.570Z,53.07
2018-12-30T05:22:48.269Z,60.70
2018-12-30T05:27:33.999Z,65.07
2018-12-30T05:32:19.730Z,61.90
2018-12-30T05:37:05.415Z,64.23
2018-12-30T05:41:51.100Z,57.30
2018-12-30T05:46:36.808Z,47.83
2018-12-30T05:51:22.528Z,51.23
2018-12-30T05:56:08.199Z,48.80
2018-12-30T06:00:54.015Z,49.40
2018-12-30T06:05:39.728Z,54.23
2018-12-30T06:10:25.465Z,60.60
2018-12-30T06:15:11.230Z,55.37
2018-12-30T06:19:56.945Z,55.43
2018-12-30T06:24:42.628Z,50.90
2018-12-30T06:29:28.369Z,46.03
2018-12-30T06:34:14.109Z,51.27
2018-12-30T06:38:59.816Z,51.30
2018-12-30T06:43:45.664Z,56.80
2018-12-30T06:48:31.416Z,52.70
2018-12-30T06:53:17.109Z,47.00
2018-12-30T06:58:02.879Z,37.57
2018-12-30T07:02:48.588Z,53.50
2018-12-30T07:07:34.317Z,48.67
2018-12-30T07:12:20.026Z,46.50
2018-12-30T07:17:05.816Z,57.30
2018-12-30T07:21:51.518Z,55.17
2018-12-30T07:26:37.334Z,50.00
2018-12-30T07:31:23.345Z,53.00
2018-12-30T07:36:09.102Z,53.07
2018-12-30T07:40:54.854Z,68.90
2018-12-30T07:45:40.593Z,82.47
2018-12-30T07:50:26.365Z,84.47
2018-12-30T07:55:12.195Z,91.67
2018-12-30T07:59:57.932Z,90.00
2018-12-30T08:04:43.712Z,94.20
2018-12-30T08:09:29.449Z,87.03
2018-12-30T08:14:15.146Z,89.13
2018-12-30T08:19:00.917Z,80.17
2018-12-30T08:23:46.640Z,73.77
2018-12-30T08:28:32.413Z,67.37
2018-12-30T08:33:18.156Z,52.87
2018-12-30T08:38:04.327Z,55.57
2018-12-30T08:42:50.119Z,56.20
2018-12-30T08:47:35.832Z,65.97
2018-12-30T08:52:21.671Z,53.37
2018-12-30T08:57:07.503Z,50.03
2018-12-30T09:01:53.264Z,45.43
2018-12-30T09:06:39.147Z,37.20
2018-12-30T09:11:24.839Z,43.60
2018-12-30T09:16:10.651Z,41.23
2018-12-30T09:20:56.438Z,42.10
2018-12-30T09:25:42.230Z,39.23
2018-12-30T09:30:28.018Z,32.97
2018-12-30T09:35:13.804Z,26.93
2018-12-30T09:39:59.576Z,39.47
2018-12-30T09:44:45.335Z,43.43
2018-12-30T09:49:31.038Z,32.97
2018-12-30T09:54:16.823Z,42.73
2018-12-30T09:59:02.579Z,37.03
2018-12-30T10:03:48.337Z,42.17
2018-12-30T10:08:34.254Z,30.13
2018-12-30T10:13:20.009Z,33.30
2018-12-30T10:18:05.825Z,32.30
2018-12-30T10:22:58.663Z,34.27
2018-12-30T10:27:39.070Z,31.70
2018-12-30T10:32:24.776Z,35.33
2018-12-30T10:37:10.524Z,31.63
2018-12-30T10:41:57.232Z,28.40
2018-12-30T10:46:43.183Z,34.73
2018-12-30T10:51:29.129Z,105.90
2018-12-30T10:56:14.985Z,38.27
2018-12-30T11:01:00.923Z,25.60
2018-12-30T11:05:46.650Z,23.30
2018-12-30T11:10:32.504Z,20.27
2018-12-30T11:15:18.264Z,19.20
2018-12-30T11:20:04.078Z,19.70
2018-12-30T11:24:49.898Z,18.77
2018-12-30T11:29:35.828Z,18.37
2018-12-30T11:34:21.987Z,15.97
2018-12-30T11:39:09.100Z,17.20
2018-12-30T11:43:54.950Z,17.10
2018-12-30T11:48:42.084Z,18.77
2018-12-30T11:53:28.189Z,14.27
2018-12-30T11:58:14.381Z,19.10
2018-12-30T12:03:00.783Z,24.03
2018-12-30T12:07:46.762Z,21.43
2018-12-30T12:12:32.710Z,25.70
2018-12-30T12:17:18.485Z,25.10
2018-12-30T12:22:04.437Z,30.30
2018-12-30T12:26:50.382Z,24.53
2018-12-30T12:31:36.269Z,24.73
2018-12-30T12:36:22.232Z,23.27
2018-12-30T12:41:08.221Z,25.30
2018-12-30T12:45:54.187Z,26.10
2018-12-30T12:50:40.289Z,24.10
2018-12-30T12:55:26.362Z,23.30
2018-12-30T13:00:13.556Z,28.40
2018-12-30T13:04:59.361Z,26.77
2018-12-30T13:09:45.285Z,31.87
2018-12-30T13:14:31.201Z,31.30
2018-12-30T13:19:16.998Z,25.00
2018-12-30T13:24:02.875Z,30.83
2018-12-30T13:28:48.820Z,26.47
2018-12-30T13:33:34.610Z,26.60
2018-12-30T13:38:28.081Z,27.13
2018-12-30T13:43:07.961Z,30.60
2018-12-30T13:47:54.173Z,31.47
2018-12-30T13:52:40.378Z,26.90
2018-12-30T13:57:26.420Z,27.93
2018-12-30T14:02:12.319Z,30.63
2018-12-30T14:06:59.066Z,53.37
2018-12-30T14:11:45.561Z,40.97
2018-12-30T14:16:32.027Z,31.80
2018-12-30T14:21:18.603Z,31.57
2018-12-30T14:26:05.278Z,31.40
2018-12-30T14:30:51.955Z,38.60
2018-12-30T14:35:38.290Z,38.37
2018-12-30T14:40:24.640Z,32.37
2018-12-30T14:45:11.049Z,33.07
2018-12-30T14:49:57.304Z,42.13
2018-12-30T14:54:43.694Z,43.50
2018-12-30T14:59:29.986Z,36.57
2018-12-30T15:04:16.209Z,31.20
2018-12-30T15:09:02.478Z,26.07
2018-12-30T15:13:48.773Z,24.50
2018-12-30T15:18:36.531Z,30.17
2018-12-30T15:23:22.891Z,22.07
2018-12-30T15:28:09.404Z,22.83
2018-12-30T15:32:55.915Z,20.40
2018-12-30T15:37:42.540Z,20.83
2018-12-30T15:42:29.102Z,19.40
2018-12-30T15:47:15.680Z,17.50
2018-12-30T15:52:02.004Z,16.33
2018-12-30T15:56:48.453Z,13.63
2018-12-30T16:01:34.558Z,17.73
2018-12-30T16:06:20.715Z,15.73
2018-12-30T16:11:07.058Z,20.67
2018-12-30T16:15:53.367Z,19.63
2018-12-30T16:20:39.880Z,23.10
2018-12-30T16:25:27.388Z,32.67
2018-12-30T16:30:15.310Z,31.40
2018-12-30T16:35:02.949Z,29.77
2018-12-30T16:39:49.332Z,34.87
2018-12-30T16:44:35.169Z,37.17
2018-12-30T16:49:20.922Z,77.13
2018-12-30T16:54:06.761Z,30.60
2018-12-30T16:58:52.612Z,35.07
2018-12-30T17:03:38.440Z,30.87
2018-12-30T17:08:24.351Z,30.70
2018-12-30T17:13:10.409Z,30.37
2018-12-30T17:17:56.505Z,30.00
2018-12-30T17:22:42.596Z,30.30
2018-12-30T17:27:28.587Z,35.97
2018-12-30T17:32:14.586Z,41.47
2018-12-30T17:37:00.520Z,38.23
2018-12-30T17:41:46.587Z,38.67
2018-12-30T17:46:32.469Z,35.67
2018-12-30T17:51:18.391Z,38.97
2018-12-30T17:56:04.652Z,45.60
2018-12-30T18:00:50.523Z,23.50
2018-12-30T18:05:36.611Z,17.77
2018-12-30T18:10:22.615Z,17.50
2018-12-30T18:15:08.635Z,14.87
2018-12-30T18:19:54.687Z,13.97
2018-12-30T18:24:40.759Z,15.37
2018-12-30T18:29:26.629Z,13.43
2018-12-30T18:34:12.453Z,14.47
2018-12-30T18:38:58.634Z,10.10
2018-12-30T18:43:44.692Z,11.37
2018-12-30T18:48:30.588Z,8.27
2018-12-30T18:53:16.360Z,6.03
2018-12-30T18:58:02.163Z,5.00
2018-12-30T19:02:48.277Z,5.37
2018-12-30T19:07:36.871Z,5.03
2018-12-30T19:12:22.709Z,6.47
2018-12-30T19:17:08.669Z,4.60
2018-12-30T19:21:54.709Z,5.07
2018-12-30T19:26:40.643Z,6.20
2018-12-30T19:31:26.680Z,7.03
2018-12-30T19:36:12.599Z,5.57
2018-12-30T19:40:58.371Z,7.27
2018-12-30T19:45:44.433Z,6.50
2018-12-30T19:50:30.401Z,6.77
2018-12-30T19:55:16.414Z,5.50
2018-12-30T20:00:02.258Z,6.33
2018-12-30T20:04:48.371Z,8.00
2018-12-30T20:09:34.513Z,6.27
2018-12-30T20:14:20.576Z,7.07
2018-12-30T20:19:06.687Z,5.53
2018-12-30T20:23:52.632Z,5.97
2018-12-30T20:28:57.755Z,7.67
2018-12-30T20:33:44.029Z,15.47
2018-12-30T20:38:30.665Z,14.80
2018-12-30T20:43:16.697Z,12.90
2018-12-30T20:48:02.573Z,11.17
2018-12-30T20:52:48.906Z,11.50
2018-12-30T20:57:34.798Z,11.70
2018-12-30T21:02:23.334Z,8.90
2018-12-30T21:07:10.172Z,5.73
2018-12-30T21:11:56.496Z,7.70
2018-12-30T21:16:42.527Z,9.97
2018-12-30T21:21:28.736Z,21.17
2018-12-30T21:26:15.056Z,31.57
2018-12-30T21:31:01.216Z,30.73
2018-12-30T21:35:47.455Z,35.90
2018-12-30T21:40:34.110Z,31.70
2018-12-30T21:45:20.020Z,79.53
2018-12-30T21:50:06.684Z,34.50
2018-12-30T21:54:52.717Z,26.67
2018-12-30T21:59:38.702Z,23.67
2018-12-30T22:04:25.602Z,21.40
2018-12-30T22:09:11.662Z,23.43
2018-12-30T22:13:57.587Z,20.40
2018-12-30T22:18:43.432Z,21.00
2018-12-30T22:23:29.711Z,20.23
2018-12-30T22:28:15.453Z,26.40
2018-12-30T22:33:01.379Z,26.70
2018-12-30T22:37:47.510Z,34.63
2018-12-30T22:42:33.254Z,38.20
2018-12-30T22:47:19.297Z,31.67
2018-12-30T22:52:05.100Z,31.07
2018-12-30T22:56:51.291Z,30.37
2018-12-30T23:01:40.452Z,30.20
2018-12-30T23:06:26.297Z,33.83
2018-12-30T23:11:12.331Z,32.37
2018-12-30T23:16:01.166Z,33.00
2018-12-30T23:20:47.110Z,30.37
2018-12-30T23:25:32.986Z,32.23
2018-12-30T23:30:18.888Z,27.57
2018-12-30T23:35:04.872Z,32.23
2018-12-30T23:39:50.625Z,34.67
2018-12-30T23:44:36.490Z,32.03
2018-12-30T23:49:22.246Z,34.93
2018-12-30T23:54:08.106Z,33.60
2018-12-30T23:58:54.000Z,34.70
